Time;durP1;ratioP1;P1;durP2;ratioP2;P2;SDS_P1;SDS_P2;PMS_P1;PMS_P2;Temp;Humidity;BMP_temperature;BMP_pressure;BME280_temperature;BME280_humidity;BME280_pressure;Samples;Min_cycle;Max_cycle;Signal;HPM_P1;HPM_P2
2022/06/07 00:00:30;;;;;;;3.17;1.52;;;21.60;99.90;;;;;;4247547;27;20649;-75
2022/06/07 00:02:35;;;;;;;2.97;1.30;;;21.70;99.90;;;;;;4247433;27;20213;-75
2022/06/07 00:04:39;;;;;;;2.00;1.55;;;21.70;99.90;;;;;;4247093;27;20246;-75
2022/06/07 00:06:41;;;;;;;2.63;1.55;;;21.60;99.90;;;;;;4245120;27;20254;-75
2022/06/07 00:08:44;;;;;;;2.78;1.80;;;21.60;99.90;;;;;;4247518;27;20205;-75
2022/06/07 00:10:47;;;;;;;2.88;1.70;;;21.60;99.90;;;;;;4246949;27;20635;-75
2022/06/07 00:12:49;;;;;;;2.92;1.55;;;21.60;99.90;;;;;;4247128;27;20250;-75
2022/06/07 00:14:52;;;;;;;2.83;1.77;;;21.60;99.90;;;;;;4246805;27;20258;-75
2022/06/07 00:16:56;;;;;;;2.20;1.33;;;21.60;99.90;;;;;;4247115;27;20267;-75
2022/06/07 00:18:58;;;;;;;3.78;1.50;;;21.60;99.90;;;;;;4247406;27;20213;-75
2022/06/07 00:21:01;;;;;;;2.50;1.60;;;21.60;99.90;;;;;;4246926;27;20265;-75
2022/06/07 00:23:05;;;;;;;2.17;1.30;;;21.60;99.90;;;;;;4247472;27;20660;-75
2022/06/07 00:25:10;;;;;;;2.33;1.38;;;21.60;99.90;;;;;;4247083;27;20242;-75
2022/06/07 00:27:13;;;;;;;3.30;1.52;;;21.60;99.90;;;;;;4240732;27;20262;-75
2022/06/07 00:29:16;;;;;;;2.60;1.38;;;21.60;99.90;;;;;;4243610;27;20221;-75
2022/06/07 00:31:18;;;;;;;1.67;1.33;;;21.60;99.90;;;;;;4246555;27;20270;-75
2022/06/07 00:33:23;;;;;;;1.60;1.33;;;21.60;99.90;;;;;;4246993;27;20242;-75
2022/06/07 00:35:26;;;;;;;2.53;1.52;;;21.60;99.90;;;;;;4246911;27;20251;-75
2022/06/07 00:37:28;;;;;;;2.55;1.50;;;21.60;99.90;;;;;;4247115;27;20224;-75
2022/06/07 00:39:31;;;;;;;2.28;1.45;;;21.60;99.90;;;;;;4244473;27;20213;-75
2022/06/07 00:41:34;;;;;;;1.50;1.40;;;21.60;99.90;;;;;;4245081;27;20273;-76
2022/06/07 00:43:36;;;;;;;3.00;1.45;;;21.60;99.90;;;;;;4246953;27;20266;-75
2022/06/07 00:45:39;;;;;;;1.98;1.40;;;21.60;99.90;;;;;;4238636;27;20270;-76
2022/06/07 00:47:42;;;;;;;5.35;1.77;;;21.60;99.90;;;;;;4245829;27;20262;-75
2022/06/07 00:49:48;;;;;;;1.90;1.50;;;21.60;99.90;;;;;;4237959;27;20225;-76
2022/06/07 00:51:51;;;;;;;1.77;1.33;;;21.60;99.90;;;;;;4241072;27;20256;-75
2022/06/07 00:53:54;;;;;;;2.03;1.48;;;21.50;99.90;;;;;;4246137;27;20217;-76
2022/06/07 00:55:57;;;;;;;2.08;1.55;;;21.60;99.90;;;;;;4246975;27;20612;-75
2022/06/07 00:57:59;;;;;;;1.60;1.50;;;21.50;99.90;;;;;;4246624;27;20254;-75
2022/06/07 01:00:03;;;;;;;1.90;1.33;;;21.60;99.90;;;;;;4246734;27;20212;-75
2022/06/07 01:02:06;;;;;;;2.13;1.50;;;21.60;99.90;;;;;;4246728;27;20266;-75
2022/06/07 01:04:09;;;;;;;2.10;1.42;;;21.60;99.90;;;;;;4245767;27;20213;-76
2022/06/07 01:10:54;;;;;;;2.85;1.58;;;21.50;99.90;;;;;;4245396;27;20213;-75
2022/06/07 01:12:57;;;;;;;2.17;1.48;;;21.60;99.90;;;;;;4245216;27;20213;-76
2022/06/07 01:14:59;;;;;;;2.10;1.40;;;21.60;99.90;;;;;;4245314;27;20217;-75
2022/06/07 01:17:02;;;;;;;2.22;1.48;;;21.50;99.90;;;;;;4241721;27;20209;-76
2022/06/07 01:19:04;;;;;;;3.00;1.63;;;21.50;99.90;;;;;;4246939;27;20277;-75
2022/06/07 01:21:20;;;;;;;2.38;1.35;;;21.50;99.90;;;;;;4246488;27;20645;-75
2022/06/07 01:23:22;;;;;;;2.92;1.85;;;21.50;99.90;;;;;;4246367;27;20282;-75
2022/06/07 01:25:25;;;;;;;2.17;1.50;;;21.50;99.90;;;;;;4246157;27;20213;-76
2022/06/07 01:27:27;;;;;;;3.00;1.60;;;21.50;99.90;;;;;;4246738;27;20246;-76
2022/06/07 01:29:30;;;;;;;3.25;1.75;;;21.50;99.90;;;;;;4246286;27;20221;-75
2022/06/07 01:31:33;;;;;;;3.20;1.75;;;21.50;99.90;;;;;;4245845;27;20760;-75
2022/06/07 01:33:35;;;;;;;2.30;1.52;;;21.50;99.90;;;;;;4246265;27;20391;-75
2022/06/07 01:35:37;;;;;;;2.40;1.58;;;21.50;99.90;;;;;;4239935;27;20266;-75
2022/06/07 01:37:41;;;;;;;2.40;1.52;;;21.50;99.90;;;;;;4244557;27;20229;-75
2022/06/07 01:42:04;;;;;;;1.98;1.60;;;21.50;99.90;;;;;;4244765;27;20661;-75
2022/06/07 01:44:07;;;;;;;2.00;1.40;;;21.50;99.90;;;;;;4244566;27;20262;-75
2022/06/07 01:46:09;;;;;;;2.33;1.40;;;21.40;99.90;;;;;;4244498;27;20423;-75
2022/06/07 01:48:11;;;;;;;3.10;1.63;;;21.50;99.90;;;;;;4242397;27;20638;-75
2022/06/07 01:50:14;;;;;;;2.08;1.50;;;21.40;99.90;;;;;;4244713;27;20216;-76
2022/06/07 01:52:19;;;;;;;2.10;1.40;;;21.40;99.90;;;;;;4243196;27;20216;-76
2022/06/07 01:54:23;;;;;;;3.08;1.50;;;21.50;99.90;;;;;;4244532;27;20213;-76
2022/06/07 01:56:25;;;;;;;3.05;1.77;;;21.50;99.90;;;;;;4243814;27;20258;-75
2022/06/07 01:58:29;;;;;;;4.15;1.95;;;21.50;99.90;;;;;;4245848;27;20722;-75
2022/06/07 02:00:31;;;;;;;2.42;1.60;;;21.40;99.90;;;;;;4246134;27;20205;-75
2022/06/07 02:02:33;;;;;;;2.28;1.33;;;21.40;99.90;;;;;;4246154;27;20209;-76
2022/06/07 02:04:37;;;;;;;2.17;1.45;;;21.40;99.90;;;;;;4232020;27;20263;-76
2022/06/07 02:06:39;;;;;;;2.17;1.55;;;21.50;99.90;;;;;;4236841;27;20212;-76
2022/06/07 02:08:42;;;;;;;3.03;1.63;;;21.50;99.90;;;;;;4246084;27;20209;-75
2022/06/07 02:10:46;;;;;;;2.35;1.65;;;21.40;99.90;;;;;;4240891;27;20285;-75
2022/06/07 02:12:48;;;;;;;2.08;1.40;;;21.40;99.90;;;;;;4241886;27;21342;-76
2022/06/07 02:14:51;;;;;;;2.30;1.50;;;21.40;99.90;;;;;;4244490;27;20209;-75
2022/06/07 02:16:53;;;;;;;3.30;1.60;;;21.50;99.90;;;;;;4243824;28;20313;-76
2022/06/07 02:18:55;;;;;;;2.05;1.20;;;21.40;99.90;;;;;;4244263;28;20276;-76
2022/06/07 02:21:00;;;;;;;3.47;1.48;;;21.40;99.90;;;;;;4244356;27;20209;-76
2022/06/07 02:23:03;;;;;;;2.28;1.48;;;21.40;99.90;;;;;;4243898;27;20716;-75
2022/06/07 02:25:06;;;;;;;3.10;1.52;;;21.40;99.90;;;;;;4244170;28;20261;-75
2022/06/07 02:27:13;;;;;;;2.28;1.58;;;21.40;99.90;;;;;;4244524;27;20209;-76
2022/06/07 02:29:18;;;;;;;2.72;1.58;;;21.50;99.90;;;;;;4243600;27;20273;-76
2022/06/07 02:31:22;;;;;;;2.58;1.52;;;21.40;99.90;;;;;;4244197;28;20240;-75
2022/06/07 02:33:26;;;;;;;2.88;1.45;;;21.40;99.90;;;;;;4243598;27;20318;-75
2022/06/07 02:35:28;;;;;;;2.70;1.65;;;21.40;99.90;;;;;;4244029;28;20217;-75
2022/06/07 02:37:32;;;;;;;2.35;1.50;;;21.40;99.90;;;;;;4243976;28;20274;-75
2022/06/07 02:39:36;;;;;;;3.13;1.80;;;21.40;99.90;;;;;;4244447;27;20224;-75
2022/06/07 02:41:41;;;;;;;2.30;1.67;;;21.40;99.90;;;;;;4244447;27;20265;-75
2022/06/07 02:43:45;;;;;;;2.67;1.30;;;21.40;99.90;;;;;;4243989;27;20216;-75
2022/06/07 02:45:47;;;;;;;1.80;1.38;;;21.40;99.90;;;;;;4244176;28;20221;-75
2022/06/07 02:47:49;;;;;;;2.15;1.50;;;21.40;99.90;;;;;;4243943;28;20228;-75
2022/06/07 02:49:52;;;;;;;2.97;1.63;;;21.40;99.90;;;;;;4243652;27;20217;-75
2022/06/07 02:51:54;;;;;;;2.08;1.60;;;21.40;99.90;;;;;;4243760;28;20225;-75
2022/06/07 02:53:57;;;;;;;2.70;1.70;;;21.40;99.90;;;;;;4244283;28;20249;-75
2022/06/07 02:55:59;;;;;;;3.00;1.90;;;21.40;99.90;;;;;;4244240;28;20641;-75
2022/06/07 02:58:02;;;;;;;2.55;1.55;;;21.40;99.90;;;;;;4242656;28;20264;-75
2022/06/07 03:00:07;;;;;;;3.00;1.73;;;21.40;99.90;;;;;;4244039;27;20216;-75
2022/06/07 03:02:09;;;;;;;2.47;1.70;;;21.40;99.90;;;;;;4243706;27;20209;-75
2022/06/07 03:04:12;;;;;;;2.28;1.55;;;21.40;99.90;;;;;;4240217;27;20258;-75
2022/06/07 03:06:14;;;;;;;2.35;1.52;;;21.40;99.90;;;;;;4242808;28;20295;-75
2022/06/07 03:08:18;;;;;;;2.75;1.40;;;21.30;99.90;;;;;;4243826;28;20293;-75
2022/06/07 03:10:21;;;;;;;2.38;1.50;;;21.40;99.90;;;;;;4243767;27;20214;-75
2022/06/07 03:12:23;;;;;;;2.38;1.40;;;21.30;99.90;;;;;;4243439;28;20630;-75
2022/06/07 03:14:26;;;;;;;2.67;1.48;;;21.30;99.90;;;;;;4244916;27;20673;-80
2022/06/07 03:16:29;;;;;;;3.35;1.70;;;21.30;99.90;;;;;;4246581;27;20213;-81
2022/06/07 03:18:32;;;;;;;1.92;1.40;;;21.40;99.90;;;;;;4248434;27;20209;-81
2022/06/07 03:20:34;;;;;;;2.47;1.55;;;21.40;99.90;;;;;;4248362;27;20258;-81
2022/06/07 03:22:37;;;;;;;3.03;1.42;;;21.30;99.90;;;;;;4248258;27;20254;-81
2022/06/07 03:24:39;;;;;;;2.10;1.50;;;21.40;99.90;;;;;;4249103;27;20261;-81
2022/06/07 03:26:42;;;;;;;2.65;1.60;;;21.40;99.90;;;;;;4249555;27;20209;-81
2022/06/07 03:28:44;;;;;;;2.65;1.40;;;21.30;99.90;;;;;;4249653;27;20567;-80
2022/06/07 03:30:47;;;;;;;2.53;1.60;;;21.30;99.90;;;;;;4249587;27;20209;-80
2022/06/07 03:32:51;;;;;;;1.52;1.20;;;21.30;99.90;;;;;;4249816;27;20281;-80
2022/06/07 03:34:53;;;;;;;3.88;1.30;;;21.30;99.90;;;;;;4249515;27;20205;-80
2022/06/07 03:36:55;;;;;;;3.33;1.55;;;21.40;99.90;;;;;;4249338;27;20554;-80
2022/06/07 03:39:01;;;;;;;3.13;1.50;;;21.30;99.90;;;;;;4247099;27;20226;-80
2022/06/07 03:41:03;;;;;;;2.75;1.40;;;21.30;99.90;;;;;;4244211;27;20254;-81
2022/06/07 03:43:06;;;;;;;1.75;1.42;;;21.30;99.90;;;;;;4248161;27;20213;-81
2022/06/07 03:45:09;;;;;;;2.35;1.25;;;21.40;99.90;;;;;;4247248;27;20269;-80
2022/06/07 03:47:11;;;;;;;2.90;1.40;;;21.40;99.90;;;;;;4247749;27;20217;-80
2022/06/07 03:49:15;;;;;;;1.60;1.38;;;21.30;99.90;;;;;;4243843;27;20209;-81
2022/06/07 03:51:19;;;;;;;1.88;1.20;;;21.30;99.90;;;;;;4242725;27;20216;-80
2022/06/07 03:53:22;;;;;;;2.63;1.70;;;21.30;99.90;;;;;;4247913;27;20212;-81
2022/06/07 03:55:24;;;;;;;3.38;1.67;;;21.30;99.90;;;;;;4247581;27;20262;-81
2022/06/07 03:57:26;;;;;;;2.58;1.70;;;21.30;99.90;;;;;;4246517;27;20213;-80
2022/06/07 03:59:29;;;;;;;3.08;1.50;;;21.30;99.90;;;;;;4246417;27;20217;-75
2022/06/07 04:01:31;;;;;;;3.15;1.50;;;21.30;99.90;;;;;;4246172;27;20278;-75
2022/06/07 04:03:34;;;;;;;1.73;1.55;;;21.30;99.90;;;;;;4246129;27;20598;-76
2022/06/07 04:05:41;;;;;;;4.10;1.45;;;21.40;99.90;;;;;;4246035;27;20698;-75
2022/06/07 04:10:06;;;;;;;3.00;1.67;;;21.30;99.90;;;;;;4246299;27;20304;-75
2022/06/07 04:12:10;;;;;;;2.95;1.58;;;21.30;99.90;;;;;;4246286;27;20599;-75
2022/06/07 04:14:12;;;;;;;2.85;1.40;;;21.40;99.90;;;;;;4245497;27;20266;-75
2022/06/07 04:16:16;;;;;;;2.67;1.52;;;21.30;99.90;;;;;;4244572;27;20568;-75
2022/06/07 04:18:19;;;;;;;3.30;1.40;;;21.40;99.90;;;;;;4245315;27;20209;-76
2022/06/07 04:20:22;;;;;;;2.95;1.83;;;21.30;99.90;;;;;;4245770;27;20265;-75
2022/06/07 04:22:25;;;;;;;3.10;1.65;;;21.30;99.90;;;;;;4245901;27;20205;-75
2022/06/07 04:24:28;;;;;;;4.00;1.73;;;21.30;99.90;;;;;;4245563;27;20201;-75
2022/06/07 04:26:32;;;;;;;3.10;1.42;;;21.30;99.90;;;;;;4245520;27;20209;-75
2022/06/07 04:28:34;;;;;;;3.08;1.70;;;21.30;99.90;;;;;;4245814;27;20270;-76
2022/06/07 04:30:37;;;;;;;2.63;1.63;;;21.30;99.90;;;;;;4245758;27;20205;-75
2022/06/07 04:32:46;;;;;;;2.85;1.55;;;21.30;99.90;;;;;;4245996;27;20233;-75
2022/06/07 04:34:48;;;;;;;3.88;1.30;;;21.30;99.90;;;;;;4244288;27;20306;-76
2022/06/07 04:36:50;;;;;;;2.38;1.52;;;21.30;99.90;;;;;;4245780;27;20217;-75
2022/06/07 04:38:56;;;;;;;4.85;1.73;;;21.30;99.90;;;;;;4245519;27;20258;-75
2022/06/07 04:40:59;;;;;;;2.20;1.52;;;21.30;99.90;;;;;;4245921;27;20250;-76
2022/06/07 04:43:01;;;;;;;2.35;1.48;;;21.30;99.90;;;;;;4245376;27;20210;-75
2022/06/07 04:45:06;;;;;;;2.63;1.48;;;21.30;99.90;;;;;;4245409;27;20218;-75
2022/06/07 04:47:09;;;;;;;2.78;1.50;;;21.30;99.90;;;;;;4245293;27;20208;-75
2022/06/07 04:49:11;;;;;;;2.88;1.60;;;21.30;99.90;;;;;;4245676;27;20213;-75
2022/06/07 04:51:19;;;;;;;2.08;1.30;;;21.30;99.90;;;;;;4244392;27;20216;-75
2022/06/07 04:53:22;;;;;;;2.10;1.27;;;21.30;99.90;;;;;;4241427;27;20236;-76
2022/06/07 04:55:25;;;;;;;1.77;1.33;;;21.30;99.90;;;;;;4245206;27;20262;-75
2022/06/07 04:57:29;;;;;;;1.60;1.25;;;21.30;99.90;;;;;;4244229;27;20213;-76
2022/06/07 04:59:31;;;;;;;2.55;1.40;;;21.30;99.90;;;;;;4245375;27;20270;-75
2022/06/07 05:01:36;;;;;;;3.15;1.40;;;21.30;99.90;;;;;;4244937;27;20217;-75
2022/06/07 05:03:38;;;;;;;4.32;1.40;;;21.30;99.90;;;;;;4245763;27;20209;-75
2022/06/07 05:05:41;;;;;;;4.28;1.45;;;21.40;99.90;;;;;;4245094;27;20213;-75
2022/06/07 05:07:43;;;;;;;1.65;1.40;;;21.30;99.90;;;;;;4244560;27;20281;-75
2022/06/07 05:09:47;;;;;;;2.45;1.50;;;21.40;99.90;;;;;;4245546;27;20217;-75
2022/06/07 05:11:52;;;;;;;1.88;1.25;;;21.40;99.90;;;;;;4245295;27;20217;-75
2022/06/07 05:13:55;;;;;;;1.92;1.40;;;21.40;99.90;;;;;;4244836;27;20676;-75
2022/06/07 05:15:57;;;;;;;2.65;1.48;;;21.40;99.90;;;;;;4242587;27;20718;-76
2022/06/07 05:17:59;;;;;;;1.77;1.35;;;21.40;99.90;;;;;;4245060;27;20209;-76
2022/06/07 05:20:02;;;;;;;2.38;1.25;;;21.40;99.90;;;;;;4244658;27;20737;-75
2022/06/07 05:22:04;;;;;;;1.95;1.60;;;21.40;99.90;;;;;;4244555;27;20310;-76
2022/06/07 05:24:07;;;;;;;1.67;1.35;;;21.40;99.90;;;;;;4245462;27;20872;-75
2022/06/07 05:26:14;;;;;;;2.15;1.23;;;21.40;99.90;;;;;;4245062;27;20217;-75
2022/06/07 05:28:18;;;;;;;1.67;1.35;;;21.40;99.90;;;;;;4245193;27;20213;-75
2022/06/07 05:30:21;;;;;;;3.35;1.60;;;21.40;99.90;;;;;;4244802;27;20274;-75
2022/06/07 05:32:23;;;;;;;2.33;1.60;;;21.40;99.90;;;;;;4244800;27;20209;-75
2022/06/07 05:34:26;;;;;;;2.90;1.35;;;21.40;99.90;;;;;;4243447;27;20250;-75
2022/06/07 05:36:28;;;;;;;3.70;1.42;;;21.40;99.90;;;;;;4242396;27;20661;-75
2022/06/07 05:38:31;;;;;;;2.60;1.60;;;21.40;99.90;;;;;;4244359;27;20237;-75
2022/06/07 05:40:36;;;;;;;2.63;1.60;;;21.40;99.90;;;;;;4244519;27;20209;-75
2022/06/07 05:42:39;;;;;;;2.40;1.40;;;21.40;99.90;;;;;;4244818;27;20213;-75
2022/06/07 05:44:42;;;;;;;2.20;1.30;;;21.50;99.90;;;;;;4243020;27;20258;-75
2022/06/07 05:46:45;;;;;;;1.60;1.23;;;21.50;99.90;;;;;;4244529;27;20213;-75
2022/06/07 05:48:47;;;;;;;2.80;1.60;;;21.40;99.90;;;;;;4244623;27;20213;-75
2022/06/07 05:50:51;;;;;;;1.77;1.10;;;21.40;99.90;;;;;;4242672;27;20242;-75
2022/06/07 05:52:53;;;;;;;2.25;1.48;;;21.50;99.90;;;;;;4243707;27;20266;-75
2022/06/07 05:54:57;;;;;;;3.20;1.20;;;21.50;99.90;;;;;;4243220;27;20208;-75
2022/06/07 05:57:10;;;;;;;1.88;1.50;;;21.50;99.90;;;;;;4244988;27;20209;-75
2022/06/07 05:59:12;;;;;;;2.40;1.30;;;21.50;99.90;;;;;;4244297;27;20292;-75
2022/06/07 06:01:16;;;;;;;1.70;1.30;;;21.50;99.90;;;;;;4244081;27;20639;-75
2022/06/07 06:03:19;;;;;;;2.38;1.50;;;21.50;99.90;;;;;;4246228;27;20629;-81
2022/06/07 06:05:21;;;;;;;2.75;1.20;;;21.50;99.90;;;;;;4245854;27;20213;-81
2022/06/07 06:07:23;;;;;;;3.00;1.35;;;21.50;99.90;;;;;;4245466;27;20229;-81
2022/06/07 06:11:45;;;;;;;1.83;1.30;;;21.50;99.90;;;;;;4246318;27;20200;-81
2022/06/07 06:13:48;;;;;;;2.88;1.20;;;21.50;99.90;;;;;;4245799;27;21020;-81
2022/06/07 06:15:50;;;;;;;3.17;1.23;;;21.60;99.90;;;;;;4245732;27;20265;-81
2022/06/07 06:17:55;;;;;;;2.80;1.27;;;21.60;99.90;;;;;;4245004;27;20213;-81
2022/06/07 06:19:57;;;;;;;2.58;1.50;;;21.60;99.90;;;;;;4245878;27;20225;-81
2022/06/07 06:22:00;;;;;;;2.15;1.20;;;21.60;99.90;;;;;;4245763;27;20722;-81
2022/06/07 06:24:02;;;;;;;1.95;1.30;;;21.60;99.90;;;;;;4245974;27;20216;-81
2022/06/07 06:26:08;;;;;;;1.70;1.17;;;21.60;99.90;;;;;;4245853;27;20225;-82
2022/06/07 06:28:10;;;;;;;1.92;1.23;;;21.60;99.90;;;;;;4246170;27;20258;-81
2022/06/07 06:30:13;;;;;;;2.17;1.13;;;21.60;99.90;;;;;;4244298;27;20212;-81
2022/06/07 06:32:16;;;;;;;2.63;1.35;;;21.60;99.90;;;;;;4244253;27;20213;-81
2022/06/07 06:34:20;;;;;;;3.97;1.20;;;21.60;99.90;;;;;;4245675;28;20229;-82
2022/06/07 06:36:26;;;;;;;3.30;1.60;;;21.60;99.90;;;;;;4246048;28;20602;-81
2022/06/07 06:38:30;;;;;;;1.88;1.27;;;21.60;99.90;;;;;;4244833;27;20294;-81
2022/06/07 06:40:32;;;;;;;2.45;1.30;;;21.70;99.90;;;;;;4243128;28;20213;-81
2022/06/07 06:42:34;;;;;;;1.67;1.23;;;21.70;99.90;;;;;;4245015;27;20265;-82
2022/06/07 06:44:37;;;;;;;2.28;1.40;;;21.70;99.90;;;;;;4243493;28;20646;-81
2022/06/07 06:46:41;;;;;;;2.22;1.45;;;21.70;99.90;;;;;;4243745;27;20216;-81
2022/06/07 06:48:44;;;;;;;3.05;1.52;;;21.70;99.90;;;;;;4245813;27;20216;-81
2022/06/07 06:50:47;;;;;;;3.30;1.30;;;21.70;99.90;;;;;;4245204;27;20201;-81
2022/06/07 06:52:50;;;;;;;1.42;1.30;;;21.70;99.90;;;;;;4241369;27;20209;-81
2022/06/07 06:54:52;;;;;;;2.67;1.30;;;21.70;99.90;;;;;;4247947;27;20232;-81
2022/06/07 06:56:54;;;;;;;3.47;1.52;;;21.70;99.90;;;;;;4248438;27;20254;-80
2022/06/07 06:58:58;;;;;;;5.43;1.58;;;21.60;99.90;;;;;;4249085;27;20258;-84
2022/06/07 07:01:02;;;;;;;4.95;1.95;;;21.40;99.90;;;;;;4249535;27;20217;-85
2022/06/07 07:03:05;;;;;;;2.88;1.55;;;21.20;99.90;;;;;;4239263;27;20747;-84
2022/06/07 07:05:11;;;;;;;2.95;1.33;;;21.10;99.90;;;;;;4219241;28;20218;-76
2022/06/07 07:07:15;;;;;;;2.75;1.48;;;21.10;99.90;;;;;;4238901;27;20221;-75
2022/06/07 07:09:19;;;;;;;4.75;1.52;;;21.10;99.90;;;;;;4241008;27;20217;-75
2022/06/07 07:11:25;;;;;;;5.32;1.80;;;21.10;99.90;;;;;;4242813;27;20217;-75
2022/06/07 07:13:29;;;;;;;4.45;1.90;;;20.90;99.90;;;;;;4243410;27;20281;-75
2022/06/07 07:15:31;;;;;;;3.03;1.52;;;21.00;99.90;;;;;;4241042;27;20269;-75
2022/06/07 07:17:37;;;;;;;6.38;1.90;;;20.90;99.90;;;;;;4240251;27;20270;-74
2022/06/07 07:19:40;;;;;;;4.10;1.60;;;21.00;99.90;;;;;;4242352;27;20205;-74
2022/06/07 07:21:45;;;;;;;6.07;1.58;;;20.90;99.90;;;;;;4241224;27;20262;-74
2022/06/07 07:23:49;;;;;;;6.28;1.77;;;21.00;99.90;;;;;;4239908;27;21969;-74
2022/06/07 07:25:51;;;;;;;4.82;1.42;;;21.00;99.90;;;;;;4240845;27;20214;-74
2022/06/07 07:27:55;;;;;;;1.60;1.25;;;21.00;99.90;;;;;;4237266;27;20251;-74
2022/06/07 07:29:58;;;;;;;3.17;1.50;;;21.00;99.90;;;;;;4235043;27;20217;-74
2022/06/07 07:32:00;;;;;;;7.53;1.63;;;21.10;99.90;;;;;;4237626;27;20209;-74
2022/06/07 07:34:07;;;;;;;6.43;1.42;;;21.10;99.90;;;;;;4239056;27;20270;-74
2022/06/07 07:36:10;;;;;;;2.78;1.35;;;21.10;99.90;;;;;;4234187;27;20278;-74
2022/06/07 07:38:13;;;;;;;3.22;1.20;;;21.00;99.90;;;;;;4238666;27;20213;-75
2022/06/07 07:40:17;;;;;;;2.78;1.23;;;21.00;99.90;;;;;;4242176;27;20209;-75
2022/06/07 07:42:20;;;;;;;3.08;1.10;;;21.00;99.90;;;;;;4227883;27;20212;-74
2022/06/07 07:44:24;;;;;;;3.92;1.30;;;21.00;99.90;;;;;;4230257;27;20689;-75
2022/06/07 07:46:29;;;;;;;5.55;1.38;;;21.00;99.90;;;;;;4241261;27;20262;-73
2022/06/07 07:48:31;;;;;;;4.70;1.40;;;21.00;99.90;;;;;;4235766;27;20258;-74
2022/06/07 07:50:33;;;;;;;2.50;1.30;;;21.10;99.90;;;;;;4239352;27;20658;-73
2022/06/07 07:52:35;;;;;;;4.10;1.38;;;21.00;99.90;;;;;;4239569;27;20258;-73
2022/06/07 07:54:38;;;;;;;7.45;1.55;;;21.10;99.90;;;;;;4240421;27;20250;-73
2022/06/07 07:56:42;;;;;;;4.38;1.23;;;21.10;99.90;;;;;;4239174;27;20217;-74
2022/06/07 07:58:44;;;;;;;5.20;1.42;;;21.10;99.90;;;;;;4241324;27;20284;-74
2022/06/07 08:00:48;;;;;;;4.15;1.52;;;21.10;99.90;;;;;;4242966;27;20217;-77
2022/06/07 08:02:52;;;;;;;4.05;1.38;;;21.00;99.90;;;;;;4239959;27;20209;-77
2022/06/07 08:04:54;;;;;;;4.43;1.50;;;21.00;99.90;;;;;;4239021;27;20266;-79
2022/06/07 08:06:57;;;;;;;4.70;1.38;;;21.10;99.90;;;;;;4238643;27;20258;-78
2022/06/07 08:09:01;;;;;;;3.50;1.40;;;21.00;99.90;;;;;;4243635;27;20258;-83
2022/06/07 08:11:04;;;;;;;3.30;1.30;;;21.00;99.90;;;;;;4237759;27;20218;-79
2022/06/07 08:13:08;;;;;;;4.78;1.42;;;21.10;99.90;;;;;;4241967;27;20624;-78
2022/06/07 08:15:12;;;;;;;3.80;1.27;;;21.20;99.90;;;;;;4237825;27;20238;-78
2022/06/07 08:17:14;;;;;;;6.68;1.50;;;21.30;99.90;;;;;;4242062;27;20216;-79
2022/06/07 08:19:18;;;;;;;4.28;1.40;;;21.50;99.90;;;;;;4243451;27;20566;-79
2022/06/07 08:21:23;;;;;;;3.17;1.25;;;21.50;99.90;;;;;;4236510;27;20255;-82
2022/06/07 08:23:28;;;;;;;5.25;1.60;;;21.60;99.90;;;;;;4240299;27;20559;-80
2022/06/07 08:25:31;;;;;;;5.07;1.60;;;21.60;99.90;;;;;;4239542;27;20205;-80
2022/06/07 08:27:33;;;;;;;4.18;1.80;;;21.70;99.90;;;;;;4239389;27;20246;-83
2022/06/07 08:29:38;;;;;;;6.35;1.98;;;21.70;99.90;;;;;;4238145;27;20213;-80
2022/06/07 08:31:40;;;;;;;7.28;2.20;;;21.70;99.90;;;;;;4240757;27;20213;-82
2022/06/07 08:38:28;;;;;;;5.07;1.70;;;21.60;99.90;;;;;;4239906;27;20214;-80
2022/06/07 08:40:34;;;;;;;5.72;1.42;;;21.70;99.90;;;;;;4237885;27;20201;-79
2022/06/07 08:42:39;;;;;;;5.07;1.88;;;21.80;99.90;;;;;;4230453;27;20224;-79
2022/06/07 08:44:48;;;;;;;4.93;2.00;;;21.80;99.90;;;;;;4240157;27;20197;-78
2022/06/07 08:46:53;;;;;;;4.35;1.60;;;21.80;99.90;;;;;;4240311;27;20217;-78
2022/06/07 08:48:55;;;;;;;6.22;1.98;;;21.80;99.90;;;;;;4237241;27;20240;-78
2022/06/07 08:51:08;;;;;;;3.85;1.42;;;21.90;99.90;;;;;;4238284;27;20225;-76
2022/06/07 08:53:14;;;;;;;3.45;1.70;;;21.90;99.90;;;;;;4231193;27;20710;-80
2022/06/07 08:55:20;;;;;;;3.08;1.25;;;21.90;99.90;;;;;;4240030;27;20237;-78
2022/06/07 08:57:30;;;;;;;4.57;1.60;;;21.90;99.90;;;;;;4241333;27;20209;-78
2022/06/07 08:59:32;;;;;;;5.80;1.55;;;21.90;99.90;;;;;;4237729;27;20220;-78
2022/06/07 09:01:47;;;;;;;4.88;1.60;;;21.90;99.90;;;;;;4239413;27;20573;-79
2022/06/07 09:04:04;;;;;;;5.63;1.50;;;21.90;99.90;;;;;;4234258;27;20614;-80
2022/06/07 09:06:18;;;;;;;3.83;1.40;;;21.90;99.90;;;;;;4236709;27;20631;-80
2022/06/07 09:08:21;;;;;;;4.20;1.30;;;22.00;99.90;;;;;;4241148;27;20241;-79
2022/06/07 09:13:03;;;;;;;5.22;1.20;;;22.10;99.90;;;;;;4235905;27;20189;-78
2022/06/07 09:15:09;;;;;;;2.85;1.30;;;22.20;99.90;;;;;;4235376;27;20287;-73
2022/06/07 09:17:16;;;;;;;3.28;1.20;;;22.20;99.90;;;;;;4241908;27;20566;-75
2022/06/07 09:19:24;;;;;;;3.53;1.10;;;22.10;99.90;;;;;;4233552;27;20267;-77
2022/06/07 09:21:30;;;;;;;2.95;1.30;;;22.20;99.90;;;;;;4233423;27;20297;-76
2022/06/07 09:23:37;;;;;;;4.30;1.52;;;22.30;99.90;;;;;;4235500;27;21682;-73
2022/06/07 09:25:48;;;;;;;3.75;1.42;;;22.30;99.90;;;;;;4230259;27;20210;-75
2022/06/07 09:27:50;;;;;;;6.15;1.50;;;22.40;99.90;;;;;;4233789;27;20594;-75
2022/06/07 09:29:55;;;;;;;7.88;1.45;;;22.50;99.90;;;;;;4234227;27;20262;-75
2022/06/07 09:31:58;;;;;;;5.05;1.55;;;22.40;99.90;;;;;;4234900;27;20213;-77
2022/06/07 09:34:07;;;;;;;5.43;1.25;;;22.40;99.90;;;;;;4233181;27;20205;-74
2022/06/07 09:36:18;;;;;;;3.85;1.10;;;22.40;99.90;;;;;;4232010;27;20245;-73
2022/06/07 09:38:34;;;;;;;4.05;1.23;;;22.50;99.90;;;;;;4232891;27;20248;-74
2022/06/07 09:40:38;;;;;;;4.70;1.40;;;22.50;99.90;;;;;;4233373;27;20248;-74
2022/06/07 09:42:40;;;;;;;6.90;1.60;;;22.60;99.90;;;;;;4235907;27;20673;-74
2022/06/07 09:44:57;;;;;;;5.30;1.40;;;22.50;99.90;;;;;;4236659;27;20634;-76
2022/06/07 09:47:03;;;;;;;3.42;1.33;;;22.60;99.90;;;;;;4240730;27;20213;-74
2022/06/07 09:49:06;;;;;;;7.10;1.17;;;22.60;99.90;;;;;;4233415;27;20286;-74
2022/06/07 09:51:16;;;;;;;3.92;1.30;;;22.60;99.90;;;;;;4239465;27;20285;-74
2022/06/07 09:53:18;;;;;;;5.25;1.45;;;22.70;99.90;;;;;;4239174;27;20254;-75
2022/06/07 09:55:28;;;;;;;3.95;1.40;;;22.60;99.90;;;;;;4237654;27;20232;-76
2022/06/07 09:57:36;;;;;;;3.30;1.65;;;22.60;99.90;;;;;;4240582;27;20266;-74
2022/06/07 09:59:49;;;;;;;4.15;1.42;;;22.70;99.90;;;;;;4238230;27;20729;-74
2022/06/07 10:01:56;;;;;;;2.67;1.05;;;22.70;99.90;;;;;;4239749;27;20209;-75
2022/06/07 10:04:06;;;;;;;4.10;1.48;;;22.70;99.90;;;;;;4235456;27;20221;-77
2022/06/07 10:06:21;;;;;;;5.03;1.70;;;22.70;99.90;;;;;;4234111;27;20698;-73
2022/06/07 10:08:34;;;;;;;3.40;1.60;;;22.60;99.90;;;;;;4234419;27;20228;-75
2022/06/07 10:10:44;;;;;;;3.70;1.30;;;22.50;99.90;;;;;;4235938;27;20365;-75
2022/06/07 10:12:57;;;;;;;8.98;2.30;;;22.50;99.90;;;;;;4234319;27;20216;-75
2022/06/07 10:15:20;;;;;;;9.95;1.92;;;22.50;99.90;;;;;;4234610;27;20348;-75
2022/06/07 10:17:44;;;;;;;4.95;1.50;;;22.50;99.90;;;;;;4230459;27;20322;-74
2022/06/07 10:19:52;;;;;;;6.30;2.20;;;22.50;99.90;;;;;;4214205;27;20909;-76
2022/06/07 10:22:18;;;;;;;8.93;1.77;;;22.60;99.90;;;;;;4229491;27;21230;-75
2022/06/07 10:24:31;;;;;;;9.55;2.00;;;22.70;99.90;;;;;;4229386;27;20243;-74
2022/06/07 10:26:57;;;;;;;8.98;2.20;;;22.70;99.90;;;;;;4238088;27;20209;-75
2022/06/07 10:29:17;;;;;;;4.05;1.92;;;22.70;99.90;;;;;;4231916;27;20221;-75
2022/06/07 10:31:35;;;;;;;5.75;1.88;;;22.60;99.90;;;;;;4238204;27;20216;-76
2022/06/07 10:33:50;;;;;;;4.15;1.80;;;22.70;99.90;;;;;;4238786;27;20254;-76
2022/06/07 10:36:01;;;;;;;5.93;1.52;;;22.70;99.90;;;;;;4218506;27;20240;-77
2022/06/07 10:38:19;;;;;;;4.88;1.48;;;22.70;99.90;;;;;;4227676;27;20269;-76
2022/06/07 10:40:35;;;;;;;3.58;1.63;;;22.70;99.90;;;;;;4242443;27;20637;-76
2022/06/07 10:42:43;;;;;;;3.72;1.88;;;22.70;99.90;;;;;;4228971;27;20214;-75
2022/06/07 10:44:49;;;;;;;5.07;1.70;;;22.70;99.90;;;;;;4218938;27;20270;-76
2022/06/07 10:46:52;;;;;;;4.13;1.77;;;22.70;99.90;;;;;;4224713;27;20201;-77
2022/06/07 10:49:07;;;;;;;3.88;2.15;;;22.70;99.90;;;;;;4239210;27;20221;-76
2022/06/07 10:53:47;;;;;;;4.05;2.03;;;22.70;99.90;;;;;;4226191;27;20204;-75
2022/06/07 10:55:53;;;;;;;3.50;1.70;;;22.70;99.90;;;;;;4239315;27;20232;-77
2022/06/07 10:58:21;;;;;;;4.25;2.00;;;22.80;99.90;;;;;;4228892;27;20209;-77
2022/06/07 11:00:41;;;;;;;4.60;1.98;;;22.80;99.90;;;;;;4238943;27;20210;-78
2022/06/07 11:02:52;;;;;;;3.17;1.80;;;22.80;99.90;;;;;;4234405;27;20242;-75
2022/06/07 11:09:49;;;;;;;5.47;2.17;;;22.80;99.90;;;;;;4238460;27;20185;-76
2022/06/07 11:11:56;;;;;;;4.68;1.90;;;22.80;99.90;;;;;;4239896;27;20535;-76
2022/06/07 11:14:12;;;;;;;4.85;1.80;;;22.80;99.90;;;;;;4241432;27;20516;-76
2022/06/07 11:16:20;;;;;;;5.38;2.10;;;22.80;99.90;;;;;;4239674;27;22315;-77